createdAt,value
2017-11-08T00:00:06.015Z,6.00
2017-11-08T00:03:08.110Z,6.10
2017-11-08T00:06:09.429Z,6.00
2017-11-08T00:09:11.535Z,6.10
2017-11-08T00:12:12.878Z,6.00
2017-11-08T00:15:14.202Z,6.10
2017-11-08T00:18:15.534Z,6.10
2017-11-08T00:21:17.650Z,6.20
2017-11-08T00:24:22.945Z,6.20
2017-11-08T00:27:25.049Z,6.20
2017-11-08T00:30:26.405Z,6.00
2017-11-08T00:33:27.742Z,6.20
2017-11-08T00:36:29.067Z,6.30
2017-11-08T00:39:31.146Z,6.30
2017-11-08T00:42:33.199Z,6.30
2017-11-08T00:45:35.317Z,6.30
2017-11-08T00:48:36.676Z,6.20
2017-11-08T00:51:37.981Z,6.30
2017-11-08T00:54:39.334Z,6.30
2017-11-08T00:57:46.696Z,6.20
2017-11-08T01:00:51.906Z,6.30
2017-11-08T01:03:53.265Z,6.30
2017-11-08T01:06:54.611Z,6.60
2017-11-08T01:09:55.943Z,6.40
2017-11-08T01:12:59.000Z,6.40
2017-11-08T01:16:01.102Z,6.40
2017-11-08T01:19:02.435Z,6.40
2017-11-08T01:22:03.729Z,6.40
2017-11-08T01:25:05.064Z,6.50
2017-11-08T01:28:06.386Z,6.50
2017-11-08T01:31:07.750Z,6.50
2017-11-08T01:34:09.093Z,6.30
2017-11-08T01:37:15.263Z,6.40
2017-11-08T01:40:18.437Z,6.40
2017-11-08T01:43:19.801Z,6.40
2017-11-08T01:46:21.167Z,6.40
2017-11-08T01:49:22.510Z,6.40
2017-11-08T01:52:23.866Z,6.40
2017-11-08T01:55:26.022Z,6.40
2017-11-08T01:58:27.382Z,6.30
2017-11-08T02:01:28.726Z,6.40
2017-11-08T02:04:30.057Z,6.50
2017-11-08T02:07:31.421Z,6.50
2017-11-08T02:10:32.846Z,6.50
2017-11-08T02:13:34.954Z,6.50
2017-11-08T02:16:36.342Z,6.50
2017-11-08T02:19:37.674Z,6.50
2017-11-08T02:22:39.104Z,6.60
2017-11-08T02:25:40.460Z,6.50
2017-11-08T02:28:41.793Z,6.50
2017-11-08T02:31:43.161Z,6.50
2017-11-08T02:34:44.562Z,6.50
2017-11-08T02:37:46.690Z,6.60
2017-11-08T02:40:48.101Z,6.60
2017-11-08T02:43:49.511Z,6.60
2017-11-08T02:46:56.900Z,6.60
2017-11-08T02:49:58.254Z,6.60
2017-11-08T02:52:59.613Z,6.70
2017-11-08T02:56:01.707Z,6.70
2017-11-08T02:59:03.066Z,6.60
2017-11-08T03:02:04.437Z,6.60
2017-11-08T03:05:11.900Z,6.70
2017-11-08T03:08:13.208Z,6.60
2017-11-08T03:11:14.617Z,6.60
2017-11-08T03:14:15.977Z,6.60
2017-11-08T03:17:17.331Z,6.70
2017-11-08T03:20:18.662Z,6.60
2017-11-08T03:23:19.970Z,6.60
2017-11-08T03:26:21.320Z,6.60
2017-11-08T03:29:22.661Z,6.80
2017-11-08T03:32:23.958Z,6.80
2017-11-08T03:35:25.301Z,6.60
2017-11-08T03:38:26.691Z,6.60
2017-11-08T03:41:28.030Z,6.60
2017-11-08T03:44:29.379Z,6.60
2017-11-08T03:47:30.827Z,6.60
2017-11-08T03:50:32.133Z,6.70
2017-11-08T03:53:34.218Z,6.60
2017-11-08T03:56:35.568Z,6.60
2017-11-08T03:59:37.107Z,6.60
2017-11-08T04:02:39.144Z,6.70
2017-11-08T04:05:40.480Z,6.70
2017-11-08T04:08:41.825Z,6.50
2017-11-08T04:11:43.147Z,6.60
2017-11-08T04:14:44.506Z,6.60
2017-11-08T04:17:45.875Z,6.60
2017-11-08T04:20:47.244Z,6.60
2017-11-08T04:23:48.583Z,6.60
2017-11-08T04:26:49.946Z,6.70
2017-11-08T04:29:51.311Z,6.70
2017-11-08T04:32:52.629Z,6.70
2017-11-08T04:35:53.944Z,6.70
2017-11-08T04:38:55.288Z,6.70
2017-11-08T04:41:56.582Z,6.70
2017-11-08T04:44:57.931Z,6.70
2017-11-08T04:47:59.310Z,6.60
2017-11-08T04:51:00.642Z,6.70
2017-11-08T04:54:01.998Z,6.70
2017-11-08T04:57:03.377Z,6.70
2017-11-08T05:00:05.452Z,6.70
2017-11-08T05:03:06.898Z,6.70
2017-11-08T05:06:08.938Z,6.70
2017-11-08T05:09:10.254Z,6.70
2017-11-08T05:12:11.619Z,6.70
2017-11-08T05:15:12.934Z,6.70
2017-11-08T05:18:14.274Z,6.70
2017-11-08T05:21:15.606Z,6.70
2017-11-08T05:24:17.651Z,6.70
2017-11-08T05:27:19.018Z,6.70
2017-11-08T05:30:21.435Z,6.70
2017-11-08T05:33:22.784Z,6.70
2017-11-08T05:36:24.090Z,6.70
2017-11-08T05:39:25.423Z,6.70
2017-11-08T05:42:26.729Z,6.70
2017-11-08T05:45:28.107Z,6.70
2017-11-08T05:48:29.464Z,6.70
2017-11-08T05:51:30.868Z,6.70
2017-11-08T05:54:32.203Z,6.70
2017-11-08T05:57:34.280Z,6.80
2017-11-08T06:00:35.642Z,6.70
2017-11-08T06:03:36.968Z,6.70
2017-11-08T06:06:39.043Z,6.70
2017-11-08T06:09:41.129Z,6.80
2017-11-08T06:12:42.502Z,6.70
2017-11-08T06:15:43.830Z,6.80
2017-11-08T06:18:45.184Z,6.80
2017-11-08T06:21:46.585Z,6.90
2017-11-08T06:24:47.913Z,6.70
2017-11-08T06:27:49.250Z,6.70
2017-11-08T06:30:50.610Z,6.70
2017-11-08T06:33:52.690Z,6.70
2017-11-08T06:36:54.063Z,6.70
2017-11-08T06:39:56.181Z,6.70
2017-11-08T06:42:57.510Z,6.70
2017-11-08T06:45:58.870Z,6.70
2017-11-08T06:49:00.361Z,6.70
2017-11-08T06:52:01.681Z,6.70
2017-11-08T06:58:11.033Z,6.70
2017-11-08T07:01:12.401Z,6.70
2017-11-08T07:04:13.785Z,6.70
2017-11-08T07:07:15.125Z,6.90
2017-11-08T07:10:16.675Z,6.80
2017-11-08T07:13:18.007Z,6.60
2017-11-08T07:16:19.399Z,6.80
2017-11-08T07:19:21.458Z,6.80
2017-11-08T07:22:23.274Z,6.80
2017-11-08T07:25:24.599Z,6.80
2017-11-08T07:28:25.895Z,6.80
2017-11-08T07:31:27.218Z,6.90
2017-11-08T07:34:28.522Z,6.90
2017-11-08T07:37:29.837Z,6.90
2017-11-08T07:40:31.185Z,6.90
2017-11-08T07:43:32.534Z,6.90
2017-11-08T07:46:33.833Z,7.00
2017-11-08T07:49:35.868Z,7.00
2017-11-08T07:52:37.185Z,6.90
2017-11-08T07:55:44.634Z,6.90
2017-11-08T07:58:46.863Z,6.90
2017-11-08T08:01:48.189Z,6.90
2017-11-08T08:04:49.491Z,7.00
2017-11-08T08:07:50.785Z,7.00
2017-11-08T08:10:52.119Z,7.00
2017-11-08T08:13:58.560Z,7.00
2017-11-08T08:16:59.867Z,7.20
2017-11-08T08:20:01.179Z,7.50
2017-11-08T08:23:03.211Z,7.20
2017-11-08T08:26:05.527Z,7.20
2017-11-08T08:29:06.886Z,7.20
2017-11-08T08:32:08.224Z,7.20
2017-11-08T08:35:10.299Z,7.20
2017-11-08T08:38:11.620Z,7.20
2017-11-08T08:41:12.993Z,7.20
2017-11-08T08:44:15.007Z,7.20
2017-11-08T08:47:16.318Z,7.20
2017-11-08T08:50:17.619Z,7.20
2017-11-08T08:53:18.981Z,7.30
2017-11-08T08:56:20.307Z,7.30
2017-11-08T08:59:21.654Z,7.20
2017-11-08T09:02:23.950Z,7.30
2017-11-08T09:05:25.297Z,7.30
2017-11-08T09:08:26.653Z,7.30
2017-11-08T09:11:27.970Z,7.30
2017-11-08T09:14:29.325Z,7.40
2017-11-08T09:17:30.656Z,7.40
2017-11-08T09:20:32.032Z,7.40
2017-11-08T09:23:33.425Z,7.60
2017-11-08T09:26:35.514Z,13.80
2017-11-08T09:29:38.984Z,13.70
2017-11-08T09:32:41.106Z,15.40
2017-11-08T09:35:42.524Z,15.40
2017-11-08T09:38:43.849Z,15.60
2017-11-08T09:41:46.043Z,15.70
2017-11-08T09:44:47.409Z,15.60
2017-11-08T09:47:48.779Z,15.70
2017-11-08T09:50:50.181Z,15.60
2017-11-08T09:53:52.184Z,11.90
2017-11-08T09:56:53.535Z,11.90
2017-11-08T09:59:54.835Z,10.60
2017-11-08T10:02:56.883Z,9.60
2017-11-08T10:05:58.204Z,9.50
2017-11-08T10:09:02.403Z,9.40
2017-11-08T10:12:08.727Z,9.00
2017-11-08T10:15:10.073Z,8.80
2017-11-08T10:18:13.494Z,8.60
2017-11-08T10:21:15.522Z,8.50
2017-11-08T10:24:16.864Z,8.40
2017-11-08T10:27:18.176Z,8.40
2017-11-08T10:30:19.514Z,8.40
2017-11-08T10:33:21.556Z,8.40
2017-11-08T10:36:22.870Z,8.40
2017-11-08T10:39:24.203Z,8.30
2017-11-08T10:45:27.574Z,8.30
2017-11-08T10:48:32.776Z,8.30
2017-11-08T10:51:34.169Z,8.20
2017-11-08T10:54:35.541Z,8.20
2017-11-08T10:57:36.868Z,8.20
2017-11-08T11:00:42.233Z,8.20
2017-11-08T11:03:43.602Z,8.10
2017-11-08T11:06:44.991Z,8.20
2017-11-08T11:09:48.038Z,11.20
2017-11-08T11:12:49.388Z,11.20
2017-11-08T11:15:52.519Z,12.10
2017-11-08T11:18:54.593Z,10.30
2017-11-08T11:22:01.498Z,9.60
2017-11-08T11:25:02.805Z,9.60
2017-11-08T11:28:04.131Z,9.00
2017-11-08T11:31:05.480Z,8.80
2017-11-08T11:34:06.841Z,8.60
2017-11-08T11:37:08.245Z,8.60
2017-11-08T11:40:09.639Z,8.50
2017-11-08T11:43:11.019Z,8.40
2017-11-08T11:46:12.347Z,8.30
2017-11-08T11:49:13.704Z,8.30
2017-11-08T11:52:15.104Z,8.40
2017-11-08T11:55:16.460Z,8.40
2017-11-08T11:58:17.850Z,8.40
2017-11-08T12:01:19.188Z,8.30
2017-11-08T12:04:21.064Z,8.40
2017-11-08T12:07:22.443Z,8.30
2017-11-08T12:10:26.591Z,8.30
2017-11-08T12:13:28.009Z,8.20
2017-11-08T12:16:29.426Z,8.30
2017-11-08T12:19:30.831Z,8.30
2017-11-08T12:22:32.920Z,8.30
2017-11-08T12:25:34.473Z,8.30
2017-11-08T12:28:35.817Z,8.30
2017-11-08T12:31:37.195Z,8.30
2017-11-08T12:34:40.032Z,8.30
2017-11-08T12:37:42.747Z,8.40
2017-11-08T12:40:44.430Z,8.40
2017-11-08T12:43:47.763Z,8.40
2017-11-08T12:46:49.145Z,8.50
2017-11-08T12:49:51.752Z,8.50
2017-11-08T12:52:54.220Z,8.50
2017-11-08T12:55:56.192Z,8.50
2017-11-08T12:58:57.718Z,8.50
2017-11-08T13:02:01.803Z,8.40
2017-11-08T13:05:04.108Z,8.40
2017-11-08T13:08:08.175Z,8.50
2017-11-08T13:11:15.958Z,8.50
2017-11-08T13:14:17.363Z,8.50
2017-11-08T13:17:18.723Z,8.50
2017-11-08T13:20:21.064Z,8.50
2017-11-08T13:23:22.456Z,8.50
2017-11-08T13:26:24.348Z,8.50
2017-11-08T13:29:26.760Z,8.40
2017-11-08T13:32:28.581Z,8.40
2017-11-08T13:35:29.992Z,8.40
2017-11-08T13:38:32.077Z,8.40
2017-11-08T13:41:35.400Z,8.40
2017-11-08T13:44:36.924Z,8.30
2017-11-08T13:47:38.405Z,8.40
2017-11-08T13:50:39.841Z,8.40
2017-11-08T13:53:42.609Z,8.40
2017-11-08T13:56:45.792Z,8.40
2017-11-08T13:59:47.723Z,8.40
2017-11-08T14:02:50.010Z,8.40
2017-11-08T14:05:52.986Z,8.40
2017-11-08T14:08:56.153Z,8.50
2017-11-08T14:11:57.566Z,8.50
2017-11-08T14:15:00.066Z,8.70
2017-11-08T14:18:03.687Z,8.50
2017-11-08T14:21:05.163Z,8.50
2017-11-08T14:24:06.533Z,8.50
2017-11-08T14:27:07.871Z,8.50
2017-11-08T14:30:15.861Z,8.40
2017-11-08T14:33:18.481Z,8.40
2017-11-08T14:36:21.298Z,8.40
2017-11-08T14:39:25.334Z,8.40
2017-11-08T14:42:28.704Z,8.40
2017-11-08T14:45:31.366Z,8.50
2017-11-08T14:48:32.777Z,8.40
2017-11-08T14:51:36.165Z,8.50
2017-11-08T14:54:39.349Z,8.50
2017-11-08T14:57:40.710Z,8.50
2017-11-08T15:00:42.054Z,8.50
2017-11-08T15:03:43.401Z,8.40
2017-11-08T15:06:44.711Z,8.50
2017-11-08T15:09:46.025Z,8.50
2017-11-08T15:12:47.326Z,8.50
2017-11-08T15:15:49.455Z,8.50
2017-11-08T15:18:50.789Z,8.50
2017-11-08T15:21:52.072Z,8.50
2017-11-08T15:24:53.468Z,8.50
2017-11-08T15:27:55.074Z,8.50
2017-11-08T15:30:56.425Z,8.50
2017-11-08T15:33:57.931Z,8.50
2017-11-08T15:36:59.324Z,8.50
2017-11-08T15:40:00.716Z,8.50
2017-11-08T15:43:02.854Z,8.50
2017-11-08T15:46:06.279Z,8.40
2017-11-08T15:49:14.448Z,8.40
2017-11-08T15:52:15.797Z,8.40
2017-11-08T15:55:17.174Z,8.40
2017-11-08T15:58:18.541Z,8.60
2017-11-08T16:01:23.725Z,8.80
2017-11-08T16:04:25.932Z,8.80
2017-11-08T16:07:27.359Z,8.70
2017-11-08T16:10:28.735Z,8.60
2017-11-08T16:13:30.265Z,8.50
2017-11-08T16:16:32.456Z,8.50
2017-11-08T16:19:33.797Z,8.50
2017-11-08T16:22:35.191Z,8.50
2017-11-08T16:25:37.285Z,8.50
2017-11-08T16:28:38.631Z,8.50
2017-11-08T16:31:39.992Z,8.50
2017-11-08T16:34:41.355Z,8.50
2017-11-08T16:37:42.718Z,8.50
2017-11-08T16:40:44.071Z,8.50
2017-11-08T16:43:45.423Z,8.40
2017-11-08T16:46:46.766Z,8.40
2017-11-08T16:49:48.178Z,8.40
2017-11-08T16:52:49.730Z,8.30
2017-11-08T16:55:51.039Z,8.30
2017-11-08T16:58:52.453Z,8.30
2017-11-08T17:01:53.832Z,8.40
2017-11-08T17:04:55.213Z,8.50
2017-11-08T17:07:57.319Z,8.50
2017-11-08T17:10:58.654Z,8.50
2017-11-08T17:13:59.972Z,8.50
2017-11-08T17:17:01.290Z,8.50
2017-11-08T17:20:02.743Z,8.50
2017-11-08T17:23:04.070Z,8.50
2017-11-08T17:26:05.392Z,8.50
2017-11-08T17:29:07.491Z,8.50
2017-11-08T17:32:08.796Z,8.50
2017-11-08T17:35:10.915Z,8.80
2017-11-08T17:38:13.111Z,8.80
2017-11-08T17:41:14.514Z,8.60
2017-11-08T17:44:16.433Z,8.70
2017-11-08T17:47:18.447Z,8.60
2017-11-08T17:50:20.224Z,8.40
2017-11-08T17:53:21.627Z,8.50
2017-11-08T17:56:23.738Z,8.50
2017-11-08T17:59:25.140Z,8.50
2017-11-08T18:02:27.268Z,8.50
2017-11-08T18:05:28.727Z,8.50
2017-11-08T18:08:30.526Z,8.50
2017-11-08T18:11:32.674Z,8.50
2017-11-08T18:14:34.139Z,8.50
2017-11-08T18:17:36.307Z,8.50
2017-11-08T18:20:37.660Z,8.50
2017-11-08T18:23:39.218Z,8.50
2017-11-08T18:26:41.398Z,8.50
2017-11-08T18:29:43.535Z,8.50
2017-11-08T18:32:44.974Z,8.50
2017-11-08T18:35:46.416Z,8.50
2017-11-08T18:38:47.757Z,8.50
2017-11-08T18:41:49.204Z,8.50
2017-11-08T18:44:50.616Z,8.50
2017-11-08T18:47:52.799Z,8.50
2017-11-08T18:50:54.942Z,8.50
2017-11-08T18:53:56.315Z,8.50
2017-11-08T18:56:58.410Z,8.50
2017-11-08T18:59:59.881Z,8.50
2017-11-08T19:03:01.316Z,8.50
2017-11-08T19:06:02.683Z,8.50
2017-11-08T19:09:04.122Z,8.40
2017-11-08T19:12:05.540Z,8.60
2017-11-08T19:15:07.708Z,8.50
2017-11-08T19:18:09.851Z,8.50
2017-11-08T19:21:11.287Z,8.50
2017-11-08T19:24:12.728Z,8.40
2017-11-08T19:27:14.137Z,8.50
2017-11-08T19:30:16.295Z,8.50
2017-11-08T19:33:17.690Z,8.50
2017-11-08T19:36:19.166Z,8.50
2017-11-08T19:39:20.555Z,8.60
2017-11-08T19:42:21.948Z,8.70
2017-11-08T19:45:23.410Z,8.70
2017-11-08T19:48:24.919Z,8.60
2017-11-08T19:51:27.852Z,8.60
2017-11-08T19:54:29.310Z,8.50
2017-11-08T19:57:30.794Z,8.50
2017-11-08T20:00:32.228Z,8.50
2017-11-08T20:03:33.761Z,8.30
2017-11-08T20:06:35.215Z,8.50
2017-11-08T20:09:36.744Z,8.30
2017-11-08T20:12:38.179Z,8.30
2017-11-08T20:15:40.405Z,8.50
2017-11-08T20:18:41.865Z,8.50
2017-11-08T20:21:43.308Z,8.50
2017-11-08T20:24:44.809Z,8.50
2017-11-08T20:27:46.612Z,8.50
2017-11-08T20:30:48.359Z,8.50
2017-11-08T20:33:49.771Z,8.30
2017-11-08T20:36:51.177Z,8.50
2017-11-08T20:39:52.533Z,8.40
2017-11-08T20:42:53.949Z,8.40
2017-11-08T20:45:56.150Z,8.50
2017-11-08T20:48:57.515Z,8.50
2017-11-08T20:51:58.840Z,8.50
2017-11-08T20:55:00.182Z,8.50
2017-11-08T20:58:01.603Z,8.50
2017-11-08T21:01:03.757Z,8.50
2017-11-08T21:04:05.248Z,8.50
2017-11-08T21:07:07.956Z,8.50
2017-11-08T21:10:10.866Z,8.50
2017-11-08T21:13:13.722Z,8.50
2017-11-08T21:16:16.650Z,8.40
2017-11-08T21:19:19.455Z,8.40
2017-11-08T21:22:21.563Z,8.40
2017-11-08T21:25:23.184Z,8.50
2017-11-08T21:28:24.592Z,8.50
2017-11-08T21:31:25.952Z,8.50
2017-11-08T21:34:27.433Z,8.50
2017-11-08T21:37:29.383Z,8.50
2017-11-08T21:40:31.389Z,8.50
2017-11-08T21:43:32.839Z,8.50
2017-11-08T21:46:34.916Z,8.50
2017-11-08T21:49:36.809Z,8.90
2017-11-08T21:52:39.909Z,8.60
2017-11-08T21:55:41.406Z,8.60
2017-11-08T21:58:43.736Z,8.30
2017-11-08T22:01:46.035Z,8.50
2017-11-08T22:04:47.575Z,8.40
2017-11-08T22:07:50.214Z,8.50
2017-11-08T22:10:52.602Z,8.40
2017-11-08T22:13:54.790Z,8.40
2017-11-08T22:16:56.155Z,8.40
2017-11-08T22:19:57.522Z,8.40
2017-11-08T22:23:00.179Z,8.40
2017-11-08T22:26:02.352Z,8.40
2017-11-08T22:29:04.477Z,8.40
2017-11-08T22:32:05.893Z,8.20
2017-11-08T22:35:08.371Z,8.40
2017-11-08T22:38:09.805Z,8.40
2017-11-08T22:41:11.286Z,8.40
2017-11-08T22:44:13.446Z,8.50
2017-11-08T22:47:14.837Z,8.50
2017-11-08T22:50:16.216Z,8.50
2017-11-08T22:53:17.749Z,8.50
2017-11-08T22:56:19.062Z,8.40
2017-11-08T22:59:21.244Z,8.40
2017-11-08T23:02:22.926Z,8.40
2017-11-08T23:05:24.289Z,8.50
2017-11-08T23:08:26.425Z,8.40
2017-11-08T23:11:27.753Z,8.40
2017-11-08T23:14:29.916Z,8.40
2017-11-08T23:17:32.057Z,8.50
2017-11-08T23:20:33.486Z,8.40
2017-11-08T23:23:34.903Z,8.50
2017-11-08T23:26:37.081Z,8.40
2017-11-08T23:29:38.841Z,8.40
2017-11-08T23:32:40.209Z,8.40
2017-11-08T23:35:41.585Z,8.40
2017-11-08T23:38:43.696Z,8.40
2017-11-08T23:41:45.816Z,8.40
2017-11-08T23:44:47.176Z,8.40
2017-11-08T23:47:48.537Z,8.40
2017-11-08T23:50:49.952Z,8.40
2017-11-08T23:53:51.361Z,8.40
2017-11-08T23:56:53.550Z,8.50
